createdAt,value
2019-04-23T00:01:29.897Z,5.53
2019-04-23T00:05:41.415Z,5.53
2019-04-23T00:09:39.328Z,5.40
2019-04-23T00:13:50.248Z,5.50
2019-04-23T00:17:55.783Z,5.63
2019-04-23T00:22:05.465Z,5.90
2019-04-23T00:26:25.650Z,4.90
2019-04-23T00:30:36.471Z,5.33
2019-04-23T00:38:49.927Z,5.00
2019-04-23T00:47:23.536Z,5.13
2019-04-23T00:51:22.403Z,5.80
2019-04-23T00:55:31.275Z,4.97
2019-04-23T00:59:48.245Z,5.67
2019-04-23T01:03:48.346Z,5.50
2019-04-23T01:07:51.501Z,5.43
2019-04-23T01:12:03.896Z,5.43
2019-04-23T01:16:13.147Z,5.47
2019-04-23T01:20:20.988Z,5.70
2019-04-23T01:24:14.113Z,5.87
2019-04-23T01:28:42.456Z,5.77
2019-04-23T01:32:54.659Z,5.37
2019-04-23T01:36:56.460Z,5.77
2019-04-23T01:41:07.718Z,5.40
2019-04-23T01:45:21.799Z,5.70
2019-04-23T01:49:31.453Z,5.70
2019-04-23T01:53:34.605Z,5.70
2019-04-23T02:05:58.884Z,5.53
2019-04-23T02:10:07.159Z,5.87
2019-04-23T02:14:16.298Z,5.47
2019-04-23T02:18:24.408Z,5.77
2019-04-23T02:22:58.717Z,5.40
2019-04-23T02:27:03.215Z,6.07
2019-04-23T02:39:36.802Z,6.10
2019-04-23T02:43:26.409Z,6.00
2019-04-23T02:52:03.487Z,5.87
2019-04-23T02:56:29.118Z,5.57
2019-04-23T03:04:34.852Z,6.10
2019-04-23T03:08:27.253Z,5.73
2019-04-23T03:12:52.605Z,5.50
2019-04-23T03:16:53.991Z,5.73
2019-04-23T03:25:27.240Z,5.73
2019-04-23T03:29:31.735Z,5.40
2019-04-23T03:41:54.839Z,5.93
2019-04-23T03:46:22.082Z,6.60
2019-04-23T04:03:04.681Z,7.03
2019-04-23T04:07:15.331Z,7.00
2019-04-23T04:11:14.631Z,5.73
2019-04-23T04:15:53.316Z,6.90
2019-04-23T04:23:43.187Z,6.13
2019-04-23T04:27:54.468Z,5.70
2019-04-23T04:31:57.156Z,5.73
2019-04-23T04:36:21.877Z,6.10
2019-04-23T04:40:45.817Z,6.87
2019-04-23T04:44:43.516Z,5.63
2019-04-23T04:48:54.872Z,6.77
2019-04-23T04:53:12.574Z,5.93
2019-04-23T04:57:20.436Z,5.20
2019-04-23T05:05:51.565Z,5.67
2019-04-23T05:09:52.085Z,5.90
2019-04-23T05:13:51.555Z,5.13
2019-04-23T05:18:20.655Z,5.97
2019-04-23T05:22:06.950Z,6.07
2019-04-23T05:26:17.387Z,5.93
2019-04-23T05:30:25.106Z,5.40
2019-04-23T05:34:27.349Z,6.30
2019-04-23T05:42:50.046Z,6.10
2019-04-23T05:46:55.842Z,6.23
2019-04-23T05:51:04.521Z,6.33
2019-04-23T05:55:08.818Z,6.70
2019-04-23T05:59:19.555Z,6.30
2019-04-23T06:03:29.379Z,6.77
2019-04-23T06:07:38.929Z,6.53
2019-04-23T06:11:53.654Z,6.33
2019-04-23T06:15:55.875Z,6.47
2019-04-23T06:20:04.318Z,5.67
2019-04-23T06:24:16.812Z,7.17
2019-04-23T06:32:25.837Z,6.90
2019-04-23T06:36:32.633Z,7.87
2019-04-23T06:40:43.482Z,7.00
2019-04-23T06:44:51.698Z,6.37
2019-04-23T06:49:00.719Z,6.90
2019-04-23T06:52:58.864Z,7.43
2019-04-23T06:57:19.190Z,6.73
2019-04-23T07:01:22.145Z,6.70
2019-04-23T07:05:37.673Z,7.13
2019-04-23T07:09:38.885Z,7.40
2019-04-23T07:13:55.826Z,7.30
2019-04-23T07:17:58.760Z,5.80
2019-04-23T07:22:14.721Z,7.57
2019-04-23T07:30:32.875Z,7.17
2019-04-23T07:34:49.411Z,8.43
2019-04-23T07:39:11.753Z,7.57
2019-04-23T07:43:34.331Z,7.20
2019-04-23T07:48:01.425Z,7.27
2019-04-23T07:52:13.234Z,6.83
2019-04-23T07:56:13.124Z,6.33
2019-04-23T08:00:29.713Z,7.77
2019-04-23T08:04:35.268Z,7.47
2019-04-23T08:08:39.331Z,8.27
2019-04-23T08:12:45.173Z,7.80
2019-04-23T08:16:50.327Z,8.40
2019-04-23T08:21:05.559Z,7.23
2019-04-23T08:25:12.565Z,8.00
2019-04-23T08:29:24.987Z,8.40
2019-04-23T08:33:42.257Z,8.33
2019-04-23T08:45:59.550Z,9.03
2019-04-23T08:50:27.688Z,8.60
2019-04-23T08:54:29.805Z,8.63
2019-04-23T08:58:34.295Z,8.17
2019-04-23T09:02:47.804Z,8.37
2019-04-23T09:06:50.192Z,8.60
2019-04-23T09:10:55.802Z,8.57
2019-04-23T09:15:01.869Z,8.30
2019-04-23T09:23:11.590Z,10.13
2019-04-23T09:27:31.667Z,9.13
2019-04-23T09:32:05.677Z,7.83
2019-04-23T09:36:06.539Z,8.53
2019-04-23T09:40:51.555Z,8.63
2019-04-23T09:44:57.049Z,8.77
2019-04-23T09:49:03.376Z,7.87
2019-04-23T09:57:07.315Z,8.90
2019-04-23T10:05:19.522Z,7.73
2019-04-23T10:09:16.147Z,9.13
2019-04-23T10:13:22.062Z,8.17
2019-04-23T10:17:28.935Z,10.50
2019-04-23T10:21:35.391Z,9.17
2019-04-23T10:25:41.723Z,9.60
2019-04-23T10:29:49.936Z,10.53
2019-04-23T10:33:57.945Z,10.20
2019-04-23T10:38:10.131Z,9.53
2019-04-23T10:42:14.203Z,9.83
2019-04-23T10:46:48.922Z,8.10
2019-04-23T10:51:04.570Z,9.23
2019-04-23T10:55:11.988Z,9.47
2019-04-23T11:04:02.474Z,9.33
2019-04-23T11:07:42.048Z,10.60
2019-04-23T11:12:12.333Z,11.00
2019-04-23T11:16:40.420Z,11.47
2019-04-23T11:24:36.020Z,10.07
2019-04-23T11:32:56.984Z,10.33
2019-04-23T11:41:07.256Z,9.43
2019-04-23T11:45:18.501Z,8.60
2019-04-23T11:49:34.867Z,10.53
2019-04-23T11:53:32.045Z,11.13
2019-04-23T11:57:41.235Z,10.20
2019-04-23T12:02:00.812Z,10.40
2019-04-23T12:06:25.043Z,10.60
2019-04-23T12:19:40.943Z,10.93
2019-04-23T12:23:43.628Z,11.73
2019-04-23T12:27:27.497Z,11.20
2019-04-23T12:31:47.581Z,12.30
2019-04-23T12:35:39.019Z,10.57
2019-04-23T12:40:00.590Z,9.97
2019-04-23T12:44:00.930Z,11.93
2019-04-23T12:52:18.172Z,12.83
2019-04-23T12:56:31.807Z,12.57
2019-04-23T13:04:48.885Z,11.60
2019-04-23T13:08:54.486Z,11.67
2019-04-23T13:13:10.790Z,12.80
2019-04-23T13:17:27.353Z,12.00
2019-04-23T13:21:41.393Z,12.07
2019-04-23T13:25:37.584Z,13.70
2019-04-23T13:29:43.514Z,13.13
2019-04-23T13:42:05.174Z,13.03
2019-04-23T13:46:13.775Z,13.20
2019-04-23T13:50:30.927Z,13.23
2019-04-23T13:54:46.486Z,13.33
2019-04-23T13:58:38.558Z,10.80
2019-04-23T14:06:53.921Z,14.10
2019-04-23T14:10:53.250Z,13.73
2019-04-23T14:15:12.516Z,12.30
2019-04-23T14:19:06.781Z,13.80
2019-04-23T14:23:41.239Z,14.20
2019-04-23T14:27:39.919Z,14.67
2019-04-23T14:31:43.400Z,14.40
2019-04-23T14:35:54.477Z,13.30
2019-04-23T14:40:21.686Z,14.37
2019-04-23T14:44:36.671Z,11.70
2019-04-23T14:48:51.640Z,14.10
2019-04-23T14:53:06.582Z,12.03
2019-04-23T14:57:07.950Z,12.63
2019-04-23T15:05:24.053Z,11.83
2019-04-23T15:09:33.880Z,11.27
2019-04-23T15:17:49.330Z,13.87
2019-04-23T15:26:50.931Z,10.40
2019-04-23T15:27:15.786Z,13.03
2019-04-23T15:30:03.721Z,11.83
2019-04-23T15:34:20.933Z,12.97
2019-04-23T15:42:41.236Z,10.70
2019-04-23T15:46:47.096Z,10.87
2019-04-23T15:51:04.444Z,10.03
2019-04-23T15:55:02.018Z,10.03
2019-04-23T15:59:25.934Z,8.93
2019-04-23T16:02:52.092Z,11.13
2019-04-23T16:07:08.477Z,9.77
2019-04-23T16:11:45.396Z,10.73
2019-04-23T16:16:02.585Z,11.70
2019-04-23T16:24:13.613Z,10.47
2019-04-23T16:28:18.882Z,11.47
2019-04-23T16:32:37.593Z,10.63
2019-04-23T16:36:48.268Z,10.20
2019-04-23T16:40:47.657Z,10.27
2019-04-23T16:49:20.031Z,11.70
2019-04-23T16:53:21.203Z,10.13
2019-04-23T16:57:39.000Z,11.85
2019-04-23T17:01:24.902Z,8.53
2019-04-23T17:10:03.224Z,8.60
2019-04-23T17:14:04.553Z,9.10
2019-04-23T17:18:11.631Z,9.23
2019-04-23T17:22:11.575Z,8.03
2019-04-23T17:26:26.299Z,9.67
2019-04-23T17:30:32.484Z,10.00
2019-04-23T17:39:06.382Z,8.97
2019-04-23T17:43:06.433Z,10.17
2019-04-23T17:47:37.757Z,8.97
2019-04-23T17:52:05.404Z,8.57
2019-04-23T18:00:23.153Z,8.20
2019-04-23T18:08:19.427Z,6.83
2019-04-23T18:21:03.309Z,7.27
2019-04-23T18:25:11.103Z,5.97
2019-04-23T18:34:05.306Z,7.83
2019-04-23T18:37:58.498Z,5.90
2019-04-23T18:42:22.375Z,7.23
2019-04-23T18:50:46.851Z,6.53
2019-04-23T18:54:34.725Z,7.37
2019-04-23T19:03:01.350Z,6.70
2019-04-23T19:07:42.531Z,7.60
2019-04-23T19:15:53.011Z,7.53
2019-04-23T19:20:18.023Z,8.23
2019-04-23T19:24:23.847Z,9.03
2019-04-23T19:32:39.090Z,9.97
2019-04-23T19:40:55.257Z,9.53
2019-04-23T19:44:54.399Z,9.30
2019-04-23T19:53:25.300Z,9.43
2019-04-23T19:57:22.339Z,9.97
2019-04-23T20:01:29.039Z,8.90
2019-04-23T20:05:41.873Z,9.87
2019-04-23T20:18:01.067Z,9.60
2019-04-23T20:22:16.367Z,11.10
2019-04-23T20:30:41.322Z,11.30
2019-04-23T20:34:51.864Z,10.83
2019-04-23T20:38:57.436Z,10.37
2019-04-23T20:42:53.031Z,11.97
2019-04-23T20:51:16.763Z,10.23
2019-04-23T20:55:29.332Z,11.90
2019-04-23T20:59:35.914Z,10.10
2019-04-23T21:12:05.059Z,13.93
2019-04-23T21:24:42.898Z,11.87
2019-04-23T21:28:48.256Z,12.40
2019-04-23T21:33:04.885Z,13.77
2019-04-23T21:37:06.282Z,13.23
2019-04-23T21:41:32.964Z,10.33
2019-04-23T21:45:30.475Z,9.67
2019-04-23T21:49:50.711Z,13.00
2019-04-23T21:53:46.027Z,13.67
2019-04-23T22:02:38.290Z,11.37
2019-04-23T22:06:41.302Z,15.47
2019-04-23T22:10:47.856Z,15.07
2019-04-23T22:14:47.494Z,13.13
2019-04-23T22:19:04.227Z,17.13
2019-04-23T22:27:08.608Z,14.70
2019-04-23T22:31:18.744Z,14.87
2019-04-23T22:35:24.405Z,14.50
2019-04-23T22:39:40.076Z,15.27
2019-04-23T22:43:57.721Z,16.30
2019-04-23T22:47:58.445Z,12.43
2019-04-23T22:56:10.715Z,10.17
2019-04-23T23:04:31.238Z,16.77
2019-04-23T23:08:40.839Z,15.93
2019-04-23T23:12:52.783Z,14.57
2019-04-23T23:16:50.351Z,16.93
2019-04-23T23:21:05.530Z,16.07
2019-04-23T23:25:15.193Z,15.73
2019-04-23T23:29:15.465Z,16.33
2019-04-23T23:33:23.288Z,15.57
2019-04-23T23:37:39.632Z,15.70
2019-04-23T23:50:15.941Z,16.73
2019-04-23T23:54:21.467Z,17.50
2019-04-23T23:58:40.658Z,16.47
